Toronto, Illinois
Current Conditions -  °F | °C
As of 9:52 AM on Friday 21 Nov 2014 (Local Time) from KSPI Reporting Station
Clear Clear  
Wind Chill: 15°   Ceiling: Unl
Heat Index: 27°   Visibility: 10mi
Dew Point: 11°   Wind: 15mph
Humidity: 51%   Direction: 140°SE
Pressure: 30.45"   Gusts: NA
Location:  39.854°N, 89.6295°W
Report Text: KSPI 211552Z 14013KT 10SM CLR M03/M12 A3045 RMK AO2 SLP320 T10281117
Loading
Personal Weather Stations






























Interactive Weather Map New forecast layout! Learn more

10-Day Weather Forecast

Advertisements
Track Severe Weather on mobile